sensor_id;sensor_type;location;lat;lon;timestamp;pressure;altitude;pressure_sealevel;temperature;humidity
40171;BME280;37650;52.790;18.268;2023-04-05T00:01:05;101263.89;;;-1.90;80.11
40171;BME280;37650;52.790;18.268;2023-04-05T00:04:27;101265.55;;;-1.92;80.41
40171;BME280;37650;52.790;18.268;2023-04-05T00:07:50;101263.46;;;-1.93;80.67
40171;BME280;37650;52.790;18.268;2023-04-05T00:11:14;101262.84;;;-1.97;80.52
40171;BME280;37650;52.790;18.268;2023-04-05T00:14:36;101264.61;;;-2.01;80.25
40171;BME280;37650;52.790;18.268;2023-04-05T00:18:02;101260.77;;;-2.03;80.17
40171;BME280;37650;52.790;18.268;2023-04-05T00:21:23;101256.81;;;-1.97;80.69
40171;BME280;37650;52.790;18.268;2023-04-05T00:24:44;101252.34;;;-1.91;81.31
40171;BME280;37650;52.790;18.268;2023-04-05T00:28:05;101251.28;;;-1.85;81.79
40171;BME280;37650;52.790;18.268;2023-04-05T00:31:25;101244.27;;;-1.78;81.94
40171;BME280;37650;52.790;18.268;2023-04-05T00:34:48;101241.14;;;-1.73;81.86
40171;BME280;37650;52.790;18.268;2023-04-05T00:38:09;101240.61;;;-1.67;81.97
40171;BME280;37650;52.790;18.268;2023-04-05T00:41:30;101237.80;;;-1.62;81.97
40171;BME280;37650;52.790;18.268;2023-04-05T00:44:51;101230.23;;;-1.62;81.78
40171;BME280;37650;52.790;18.268;2023-04-05T00:48:12;101230.42;;;-1.62;81.73
40171;BME280;37650;52.790;18.268;2023-04-05T00:51:33;101228.67;;;-1.62;81.65
40171;BME280;37650;52.790;18.268;2023-04-05T00:54:53;101225.15;;;-1.65;81.74
40171;BME280;37650;52.790;18.268;2023-04-05T00:58:16;101226.25;;;-1.70;81.48
40171;BME280;37650;52.790;18.268;2023-04-05T01:01:44;101224.73;;;-1.75;81.66
40171;BME280;37650;52.790;18.268;2023-04-05T01:12:33;101224.59;;;-1.93;82.52
40171;BME280;37650;52.790;18.268;2023-04-05T01:15:58;101227.26;;;-1.96;82.48
40171;BME280;37650;52.790;18.268;2023-04-05T01:19:19;101223.39;;;-1.99;82.63
40171;BME280;37650;52.790;18.268;2023-04-05T01:26:35;101210.71;;;-2.04;82.39
40171;BME280;37650;52.790;18.268;2023-04-05T01:30:16;101212.98;;;-2.09;83.10
40171;BME280;37650;52.790;18.268;2023-04-05T01:33:52;101214.59;;;-2.13;83.14
40171;BME280;37650;52.790;18.268;2023-04-05T01:37:18;101213.26;;;-2.24;83.63
40171;BME280;37650;52.790;18.268;2023-04-05T01:40:40;101211.56;;;-2.30;83.79
40171;BME280;37650;52.790;18.268;2023-04-05T01:44:01;101209.74;;;-2.27;84.33
40171;BME280;37650;52.790;18.268;2023-04-05T01:47:23;101208.02;;;-2.22;84.35
40171;BME280;37650;52.790;18.268;2023-04-05T01:50:44;101209.05;;;-2.15;84.53
40171;BME280;37650;52.790;18.268;2023-04-05T01:54:07;101205.95;;;-2.08;84.96
40171;BME280;37650;52.790;18.268;2023-04-05T01:57:29;101207.99;;;-2.03;85.34
40171;BME280;37650;52.790;18.268;2023-04-05T02:00:53;101204.98;;;-2.00;85.40
40171;BME280;37650;52.790;18.268;2023-04-05T02:04:14;101204.31;;;-1.99;85.69
40171;BME280;37650;52.790;18.268;2023-04-05T02:07:36;101204.68;;;-1.98;85.69
40171;BME280;37650;52.790;18.268;2023-04-05T02:10:57;101203.61;;;-1.99;85.89
40171;BME280;37650;52.790;18.268;2023-04-05T02:14:18;101200.39;;;-1.98;86.10
40171;BME280;37650;52.790;18.268;2023-04-05T02:17:42;101196.91;;;-1.99;86.24
40171;BME280;37650;52.790;18.268;2023-04-05T02:21:08;101203.06;;;-2.01;86.60
40171;BME280;37650;52.790;18.268;2023-04-05T02:24:31;101202.33;;;-2.02;86.79
40171;BME280;37650;52.790;18.268;2023-04-05T02:27:53;101201.67;;;-2.01;86.88
40171;BME280;37650;52.790;18.268;2023-04-05T02:31:15;101204.98;;;-2.00;87.08
40171;BME280;37650;52.790;18.268;2023-04-05T02:34:37;101207.36;;;-2.01;87.41
40171;BME280;37650;52.790;18.268;2023-04-05T02:38:02;101208.11;;;-1.99;87.46
40171;BME280;37650;52.790;18.268;2023-04-05T02:41:23;101206.88;;;-1.94;87.32
40171;BME280;37650;52.790;18.268;2023-04-05T02:44:45;101198.17;;;-1.85;86.62
40171;BME280;37650;52.790;18.268;2023-04-05T02:48:08;101196.33;;;-1.76;86.23
40171;BME280;37650;52.790;18.268;2023-04-05T02:51:28;101195.80;;;-1.69;85.96
40171;BME280;37650;52.790;18.268;2023-04-05T02:54:53;101195.13;;;-1.62;86.13
40171;BME280;37650;52.790;18.268;2023-04-05T02:58:18;101190.29;;;-1.57;85.47
40171;BME280;37650;52.790;18.268;2023-04-05T03:01:46;101186.36;;;-1.55;85.53
40171;BME280;37650;52.790;18.268;2023-04-05T03:05:19;101190.73;;;-1.52;85.25
40171;BME280;37650;52.790;18.268;2023-04-05T03:08:50;101184.26;;;-1.50;84.90
40171;BME280;37650;52.790;18.268;2023-04-05T03:12:15;101179.61;;;-1.50;84.55
40171;BME280;37650;52.790;18.268;2023-04-05T03:15:36;101180.13;;;-1.51;83.93
40171;BME280;37650;52.790;18.268;2023-04-05T03:19:00;101182.86;;;-1.51;84.01
40171;BME280;37650;52.790;18.268;2023-04-05T03:22:22;101182.36;;;-1.51;83.91
40171;BME280;37650;52.790;18.268;2023-04-05T03:25:43;101181.45;;;-1.52;83.61
40171;BME280;37650;52.790;18.268;2023-04-05T03:29:04;101176.74;;;-1.54;83.37
40171;BME280;37650;52.790;18.268;2023-04-05T03:32:32;101178.94;;;-1.56;83.28
40171;BME280;37650;52.790;18.268;2023-04-05T03:35:59;101181.57;;;-1.61;82.61
40171;BME280;37650;52.790;18.268;2023-04-05T03:39:22;101173.05;;;-1.64;82.59
40171;BME280;37650;52.790;18.268;2023-04-05T03:42:44;101171.85;;;-1.72;82.75
40171;BME280;37650;52.790;18.268;2023-04-05T03:46:06;101178.63;;;-1.75;82.77
40171;BME280;37650;52.790;18.268;2023-04-05T03:49:28;101173.25;;;-1.84;82.55
40171;BME280;37650;52.790;18.268;2023-04-05T03:52:49;101170.48;;;-1.91;82.67
40171;BME280;37650;52.790;18.268;2023-04-05T03:56:10;101171.98;;;-1.99;82.54
40171;BME280;37650;52.790;18.268;2023-04-05T03:59:38;101175.16;;;-2.03;82.66
40171;BME280;37650;52.790;18.268;2023-04-05T04:02:59;101179.61;;;-2.03;82.67
40171;BME280;37650;52.790;18.268;2023-04-05T04:06:22;101179.98;;;-2.02;82.88
40171;BME280;37650;52.790;18.268;2023-04-05T04:09:47;101181.48;;;-1.98;83.03
40171;BME280;37650;52.790;18.268;2023-04-05T04:13:09;101181.75;;;-2.01;82.48
40171;BME280;37650;52.790;18.268;2023-04-05T04:16:30;101183.24;;;-2.09;82.70
40171;BME280;37650;52.790;18.268;2023-04-05T04:20:13;101184.71;;;-2.12;82.86
40171;BME280;37650;52.790;18.268;2023-04-05T04:23:54;101185.81;;;-2.16;83.04
40171;BME280;37650;52.790;18.268;2023-04-05T04:27:44;101194.41;;;-2.22;83.34
40171;BME280;37650;52.790;18.268;2023-04-05T04:31:38;101190.91;;;-2.24;83.43
40171;BME280;37650;52.790;18.268;2023-04-05T04:35:11;101190.67;;;-2.20;84.08
40171;BME280;37650;52.790;18.268;2023-04-05T04:38:53;101192.79;;;-2.12;84.84
40171;BME280;37650;52.790;18.268;2023-04-05T04:42:51;101196.29;;;-1.96;84.85
40171;BME280;37650;52.790;18.268;2023-04-05T04:46:45;101192.86;;;-1.90;84.96
40171;BME280;37650;52.790;18.268;2023-04-05T04:50:16;101188.77;;;-1.82;85.12
40171;BME280;37650;52.790;18.268;2023-04-05T04:53:40;101190.52;;;-1.75;84.81
40171;BME280;37650;52.790;18.268;2023-04-05T04:57:01;101191.33;;;-1.70;84.76
40171;BME280;37650;52.790;18.268;2023-04-05T05:00:23;101189.64;;;-1.62;84.72
40171;BME280;37650;52.790;18.268;2023-04-05T05:03:46;101191.86;;;-1.56;84.63
40171;BME280;37650;52.790;18.268;2023-04-05T05:07:12;101191.30;;;-1.50;84.27
40171;BME280;37650;52.790;18.268;2023-04-05T05:10:33;101193.75;;;-1.42;83.92
40171;BME280;37650;52.790;18.268;2023-04-05T05:13:57;101196.39;;;-1.33;83.86
40171;BME280;37650;52.790;18.268;2023-04-05T05:17:21;101196.09;;;-1.23;83.32
40171;BME280;37650;52.790;18.268;2023-04-05T05:20:43;101198.52;;;-1.15;83.42
40171;BME280;37650;52.790;18.268;2023-04-05T05:24:04;101203.34;;;-1.07;82.98
40171;BME280;37650;52.790;18.268;2023-04-05T05:27:26;101200.66;;;-1.04;82.40
40171;BME280;37650;52.790;18.268;2023-04-05T05:30:48;101197.14;;;-1.07;82.60
40171;BME280;37650;52.790;18.268;2023-04-05T05:34:09;101195.52;;;-0.72;83.58
40171;BME280;37650;52.790;18.268;2023-04-05T05:37:33;101193.30;;;-0.56;82.15
40171;BME280;37650;52.790;18.268;2023-04-05T05:40:55;101186.42;;;-0.20;82.70
40171;BME280;37650;52.790;18.268;2023-04-05T05:44:17;101190.20;;;0.06;81.32
40171;BME280;37650;52.790;18.268;2023-04-05T05:47:38;101186.32;;;-0.08;80.27
40171;BME280;37650;52.790;18.268;2023-04-05T05:51:00;101195.65;;;0.21;80.65
40171;BME280;37650;52.790;18.268;2023-04-05T05:54:22;101190.84;;;1.22;82.68
40171;BME280;37650;52.790;18.268;2023-04-05T05:57:43;101187.60;;;2.28;81.17
40171;BME280;37650;52.790;18.268;2023-04-05T06:01:07;101180.36;;;2.97;79.93
40171;BME280;37650;52.790;18.268;2023-04-05T06:04:31;101180.08;;;3.77;77.87
40171;BME280;37650;52.790;18.268;2023-04-05T06:07:54;101181.70;;;3.17;73.59
40171;BME280;37650;52.790;18.268;2023-04-05T06:11:19;101180.40;;;2.76;72.43
40171;BME280;37650;52.790;18.268;2023-04-05T06:14:41;101187.56;;;2.61;72.33
40171;BME280;37650;52.790;18.268;2023-04-05T06:18:02;101186.96;;;2.75;72.78
40171;BME280;37650;52.790;18.268;2023-04-05T06:21:23;101187.42;;;2.89;72.61
40171;BME280;37650;52.790;18.268;2023-04-05T06:24:45;101186.52;;;3.44;73.74
40171;BME280;37650;52.790;18.268;2023-04-05T06:28:06;101188.72;;;4.50;73.80
40171;BME280;37650;52.790;18.268;2023-04-05T06:31:32;101183.23;;;5.32;72.52
40171;BME280;37650;52.790;18.268;2023-04-05T06:34:53;101186.29;;;4.89;68.93
40171;BME280;37650;52.790;18.268;2023-04-05T06:38:15;101192.88;;;4.28;68.03
40171;BME280;37650;52.790;18.268;2023-04-05T06:41:37;101195.23;;;3.96;68.56
40171;BME280;37650;52.790;18.268;2023-04-05T06:44:58;101193.25;;;4.62;70.11
40171;BME280;37650;52.790;18.268;2023-04-05T06:48:19;101188.73;;;5.59;70.37
40171;BME280;37650;52.790;18.268;2023-04-05T06:51:41;101191.31;;;6.33;68.18
40171;BME280;37650;52.790;18.268;2023-04-05T06:55:02;101189.91;;;6.57;65.81
40171;BME280;37650;52.790;18.268;2023-04-05T06:58:25;101188.40;;;6.93;65.74
40171;BME280;37650;52.790;18.268;2023-04-05T07:01:47;101185.59;;;7.44;63.89
40171;BME280;37650;52.790;18.268;2023-04-05T07:05:09;101189.08;;;7.87;63.30
40171;BME280;37650;52.790;18.268;2023-04-05T07:08:31;101183.72;;;7.97;60.89
40171;BME280;37650;52.790;18.268;2023-04-05T07:11:53;101183.20;;;8.08;58.49
40171;BME280;37650;52.790;18.268;2023-04-05T07:15:14;101183.55;;;8.09;58.24
40171;BME280;37650;52.790;18.268;2023-04-05T07:18:36;101180.19;;;8.25;56.97
40171;BME280;37650;52.790;18.268;2023-04-05T07:21:58;101177.96;;;8.07;55.45
40171;BME280;37650;52.790;18.268;2023-04-05T07:25:19;101179.92;;;8.18;55.82
40171;BME280;37650;52.790;18.268;2023-04-05T07:28:40;101174.05;;;8.81;55.86
40171;BME280;37650;52.790;18.268;2023-04-05T07:32:02;101170.77;;;8.78;53.21
40171;BME280;37650;52.790;18.268;2023-04-05T07:35:24;101173.17;;;8.91;51.40
40171;BME280;37650;52.790;18.268;2023-04-05T07:38:45;101171.20;;;8.94;51.05
40171;BME280;37650;52.790;18.268;2023-04-05T07:42:06;101175.64;;;9.47;51.34
40171;BME280;37650;52.790;18.268;2023-04-05T07:45:27;101170.37;;;9.88;50.44
40171;BME280;37650;52.790;18.268;2023-04-05T07:48:49;101168.33;;;10.19;49.46
40171;BME280;37650;52.790;18.268;2023-04-05T07:52:10;101165.52;;;10.49;48.48
40171;BME280;37650;52.790;18.268;2023-04-05T07:55:32;101166.92;;;10.84;48.74
40171;BME280;37650;52.790;18.268;2023-04-05T07:58:53;101167.00;;;11.14;47.40
40171;BME280;37650;52.790;18.268;2023-04-05T08:02:15;101167.92;;;11.00;45.71
40171;BME280;37650;52.790;18.268;2023-04-05T08:05:37;101165.69;;;11.04;45.30
40171;BME280;37650;52.790;18.268;2023-04-05T08:08:58;101166.20;;;11.30;45.19
40171;BME280;37650;52.790;18.268;2023-04-05T08:12:18;101162.67;;;10.98;44.39
40171;BME280;37650;52.790;18.268;2023-04-05T08:15:40;101161.03;;;10.31;44.09
40171;BME280;37650;52.790;18.268;2023-04-05T08:19:01;101167.34;;;9.91;44.39
40171;BME280;37650;52.790;18.268;2023-04-05T08:22:22;101160.48;;;10.39;44.29
40171;BME280;37650;52.790;18.268;2023-04-05T08:25:47;101162.45;;;10.14;43.94
40171;BME280;37650;52.790;18.268;2023-04-05T08:29:08;101159.85;;;10.85;44.58
40171;BME280;37650;52.790;18.268;2023-04-05T08:32:29;101159.48;;;11.69;42.92
40171;BME280;37650;52.790;18.268;2023-04-05T08:35:51;101158.34;;;12.25;42.03
40171;BME280;37650;52.790;18.268;2023-04-05T08:39:12;101156.22;;;12.08;40.37
40171;BME280;37650;52.790;18.268;2023-04-05T08:43:04;101146.86;;;12.43;40.51
40171;BME280;37650;52.790;18.268;2023-04-05T08:46:33;101147.17;;;12.59;39.23
40171;BME280;37650;52.790;18.268;2023-04-05T08:50:20;101147.46;;;12.92;39.65
40171;BME280;37650;52.790;18.268;2023-04-05T08:53:42;101147.23;;;13.58;40.09
40171;BME280;37650;52.790;18.268;2023-04-05T08:57:04;101141.58;;;14.26;39.41
40171;BME280;37650;52.790;18.268;2023-04-05T09:00:27;101148.32;;;13.27;36.65
40171;BME280;37650;52.790;18.268;2023-04-05T09:03:50;101154.06;;;12.09;36.95
40171;BME280;37650;52.790;18.268;2023-04-05T09:07:13;101153.35;;;11.50;37.89
40171;BME280;37650;52.790;18.268;2023-04-05T09:10:36;101149.11;;;11.06;37.16
40171;BME280;37650;52.790;18.268;2023-04-05T09:14:01;101159.48;;;9.89;37.57
40171;BME280;37650;52.790;18.268;2023-04-05T09:17:24;101158.40;;;9.04;38.32
40171;BME280;37650;52.790;18.268;2023-04-05T09:20:45;101165.68;;;8.24;39.12
40171;BME280;37650;52.790;18.268;2023-04-05T09:24:06;101170.28;;;7.68;39.31
40171;BME280;37650;52.790;18.268;2023-04-05T09:27:27;101169.02;;;7.11;39.84
40171;BME280;37650;52.790;18.268;2023-04-05T09:30:50;101168.05;;;6.87;41.13
40171;BME280;37650;52.790;18.268;2023-04-05T09:34:19;101169.08;;;6.89;40.79
40171;BME280;37650;52.790;18.268;2023-04-05T09:37:54;101165.23;;;6.88;40.76
40171;BME280;37650;52.790;18.268;2023-04-05T09:42:10;101163.30;;;6.51;40.54
40171;BME280;37650;52.790;18.268;2023-04-05T09:45:39;101163.86;;;6.23;40.47
40171;BME280;37650;52.790;18.268;2023-04-05T09:49:04;101168.92;;;5.91;40.79
40171;BME280;37650;52.790;18.268;2023-04-05T09:52:29;101167.20;;;5.85;42.24
40171;BME280;37650;52.790;18.268;2023-04-05T09:56:08;101164.33;;;7.21;42.54
40171;BME280;37650;52.790;18.268;2023-04-05T09:59:32;101160.90;;;9.38;40.24
40171;BME280;37650;52.790;18.268;2023-04-05T10:02:55;101156.73;;;10.42;37.32
40171;BME280;37650;52.790;18.268;2023-04-05T10:06:16;101152.31;;;11.37;36.88
40171;BME280;37650;52.790;18.268;2023-04-05T10:09:39;101150.56;;;11.92;34.87
40171;BME280;37650;52.790;18.268;2023-04-05T10:13:04;101147.45;;;12.45;35.08
40171;BME280;37650;52.790;18.268;2023-04-05T10:16:27;101145.92;;;12.81;33.42
40171;BME280;37650;52.790;18.268;2023-04-05T10:23:30;101150.89;;;13.68;32.41
40171;BME280;37650;52.790;18.268;2023-04-05T10:27:03;101145.13;;;13.86;32.15
40171;BME280;37650;52.790;18.268;2023-04-05T10:30:32;101147.38;;;12.79;32.94
40171;BME280;37650;52.790;18.268;2023-04-05T10:34:04;101154.05;;;12.04;32.77
40171;BME280;37650;52.790;18.268;2023-04-05T10:41:12;101149.81;;;10.15;34.72
40171;BME280;37650;52.790;18.268;2023-04-05T10:44:36;101158.84;;;9.71;35.84
40171;BME280;37650;52.790;18.268;2023-04-05T10:48:15;101154.59;;;9.03;35.76
40171;BME280;37650;52.790;18.268;2023-04-05T10:51:36;101151.64;;;8.62;37.27
40171;BME280;37650;52.790;18.268;2023-04-05T10:54:59;101149.23;;;8.70;37.32
40171;BME280;37650;52.790;18.268;2023-04-05T10:58:24;101145.32;;;11.00;37.48
40171;BME280;37650;52.790;18.268;2023-04-05T11:01:47;101136.59;;;13.67;35.85
40171;BME280;37650;52.790;18.268;2023-04-05T11:05:37;101136.85;;;15.61;33.85
40171;BME280;37650;52.790;18.268;2023-04-05T11:16:09;101130.42;;;17.37;29.35
40171;BME280;37650;52.790;18.268;2023-04-05T11:23:03;101127.59;;;17.30;28.44
40171;BME280;37650;52.790;18.268;2023-04-05T11:26:31;101124.98;;;16.85;26.51
40171;BME280;37650;52.790;18.268;2023-04-05T11:29:52;101126.02;;;15.77;25.81
40171;BME280;37650;52.790;18.268;2023-04-05T11:33:37;101127.98;;;15.34;27.55
40171;BME280;37650;52.790;18.268;2023-04-05T11:36:59;101128.86;;;16.00;27.24
40171;BME280;37650;52.790;18.268;2023-04-05T11:40:33;101121.23;;;16.22;29.16
40171;BME280;37650;52.790;18.268;2023-04-05T11:43:54;101119.09;;;17.00;27.21
40171;BME280;37650;52.790;18.268;2023-04-05T11:47:17;101115.44;;;16.32;25.92
40171;BME280;37650;52.790;18.268;2023-04-05T11:50:40;101115.82;;;16.02;28.88
40171;BME280;37650;52.790;18.268;2023-04-05T11:54:01;101112.27;;;16.95;29.51
40171;BME280;37650;52.790;18.268;2023-04-05T11:57:23;101111.42;;;17.04;28.01
40171;BME280;37650;52.790;18.268;2023-04-05T12:00:45;101116.11;;;15.43;27.40
40171;BME280;37650;52.790;18.268;2023-04-05T12:04:06;101113.15;;;15.42;29.43
40171;BME280;37650;52.790;18.268;2023-04-05T12:07:28;101114.77;;;15.53;27.65
40171;BME280;37650;52.790;18.268;2023-04-05T12:10:54;101113.55;;;14.77;27.77
40171;BME280;37650;52.790;18.268;2023-04-05T12:14:15;101112.77;;;14.14;29.39
40171;BME280;37650;52.790;18.268;2023-04-05T12:17:38;101107.76;;;14.64;30.00
40171;BME280;37650;52.790;18.268;2023-04-05T12:21:08;101107.23;;;14.76;29.80
40171;BME280;37650;52.790;18.268;2023-04-05T12:24:29;101108.37;;;13.50;29.19
40171;BME280;37650;52.790;18.268;2023-04-05T12:27:51;101108.39;;;12.46;30.55
40171;BME280;37650;52.790;18.268;2023-04-05T12:31:13;101111.16;;;11.97;30.79
40171;BME280;37650;52.790;18.268;2023-04-05T12:34:35;101107.59;;;11.09;30.97
40171;BME280;37650;52.790;18.268;2023-04-05T12:37:56;101106.67;;;10.22;31.69
40171;BME280;37650;52.790;18.268;2023-04-05T12:41:26;101105.25;;;9.93;32.62
40171;BME280;37650;52.790;18.268;2023-04-05T12:45:04;101108.52;;;9.31;32.82
40171;BME280;37650;52.790;18.268;2023-04-05T12:48:26;101106.40;;;9.15;33.91
40171;BME280;37650;52.790;18.268;2023-04-05T12:51:47;101107.29;;;9.06;34.12
40171;BME280;37650;52.790;18.268;2023-04-05T12:55:14;101106.48;;;8.92;34.51
40171;BME280;37650;52.790;18.268;2023-04-05T12:58:36;101108.35;;;8.96;35.18
40171;BME280;37650;52.790;18.268;2023-04-05T13:01:59;101109.92;;;8.96;35.34
40171;BME280;37650;52.790;18.268;2023-04-05T13:05:25;101105.35;;;8.87;35.31
40171;BME280;37650;52.790;18.268;2023-04-05T13:08:47;101099.89;;;8.89;35.53
40171;BME280;37650;52.790;18.268;2023-04-05T13:12:08;101099.69;;;9.00;35.49
40171;BME280;37650;52.790;18.268;2023-04-05T13:15:30;101101.45;;;8.71;34.93
40171;BME280;37650;52.790;18.268;2023-04-05T13:18:52;101099.31;;;8.32;35.21
40171;BME280;37650;52.790;18.268;2023-04-05T13:22:12;101097.55;;;8.21;35.57
40171;BME280;37650;52.790;18.268;2023-04-05T13:25:33;101099.16;;;8.08;35.27
40171;BME280;37650;52.790;18.268;2023-04-05T13:28:55;101097.73;;;7.74;35.81
40171;BME280;37650;52.790;18.268;2023-04-05T13:32:17;101097.53;;;7.51;35.68
40171;BME280;37650;52.790;18.268;2023-04-05T13:35:41;101099.49;;;7.20;36.03
40171;BME280;37650;52.790;18.268;2023-04-05T13:39:02;101096.11;;;6.96;36.43
40171;BME280;37650;52.790;18.268;2023-04-05T13:42:23;101099.11;;;6.91;36.55
40171;BME280;37650;52.790;18.268;2023-04-05T13:45:44;101096.15;;;6.74;36.98
40171;BME280;37650;52.790;18.268;2023-04-05T13:49:05;101093.44;;;6.67;37.45
40171;BME280;37650;52.790;18.268;2023-04-05T13:52:26;101087.81;;;6.70;37.93
40171;BME280;37650;52.790;18.268;2023-04-05T13:55:47;101087.30;;;6.71;37.66
40171;BME280;37650;52.790;18.268;2023-04-05T13:59:09;101092.52;;;6.53;37.74
40171;BME280;37650;52.790;18.268;2023-04-05T14:02:31;101096.23;;;6.64;39.07
40171;BME280;37650;52.790;18.268;2023-04-05T14:05:52;101091.01;;;6.82;39.35
40171;BME280;37650;52.790;18.268;2023-04-05T14:09:17;101089.15;;;6.94;39.24
40171;BME280;37650;52.790;18.268;2023-04-05T14:12:38;101090.93;;;7.05;38.82
40171;BME280;37650;52.790;18.268;2023-04-05T14:16:03;101089.20;;;7.60;39.06
40171;BME280;37650;52.790;18.268;2023-04-05T14:19:27;101078.89;;;8.30;38.68
40171;BME280;37650;52.790;18.268;2023-04-05T14:22:48;101078.73;;;8.98;38.46
40171;BME280;37650;52.790;18.268;2023-04-05T14:26:10;101080.17;;;9.39;37.51
40171;BME280;37650;52.790;18.268;2023-04-05T14:29:32;101080.85;;;9.65;37.04
40171;BME280;37650;52.790;18.268;2023-04-05T14:32:54;101082.58;;;9.89;36.77
40171;BME280;37650;52.790;18.268;2023-04-05T14:36:16;101079.86;;;10.89;36.34
40171;BME280;37650;52.790;18.268;2023-04-05T14:39:37;101073.83;;;12.51;35.26
40171;BME280;37650;52.790;18.268;2023-04-05T14:42:59;101070.69;;;15.02;33.07
40171;BME280;37650;52.790;18.268;2023-04-05T14:46:20;101070.52;;;16.86;30.70
40171;BME280;37650;52.790;18.268;2023-04-05T14:49:41;101069.51;;;17.93;29.31
40171;BME280;37650;52.790;18.268;2023-04-05T14:53:01;101073.91;;;18.94;28.79
40171;BME280;37650;52.790;18.268;2023-04-05T14:56:23;101070.60;;;19.50;27.15
40171;BME280;37650;52.790;18.268;2023-04-05T14:59:45;101073.02;;;18.93;27.31
40171;BME280;37650;52.790;18.268;2023-04-05T15:03:07;101075.09;;;18.83;27.89
40171;BME280;37650;52.790;18.268;2023-04-05T15:06:28;101075.76;;;17.14;28.71
40171;BME280;37650;52.790;18.268;2023-04-05T15:09:49;101087.17;;;15.37;29.70
40171;BME280;37650;52.790;18.268;2023-04-05T15:13:11;101083.73;;;13.53;29.70
40171;BME280;37650;52.790;18.268;2023-04-05T15:16:33;101091.00;;;11.84;30.69
40171;BME280;37650;52.790;18.268;2023-04-05T15:19:54;101093.49;;;10.72;31.12
40171;BME280;37650;52.790;18.268;2023-04-05T15:23:16;101097.38;;;9.78;31.96
40171;BME280;37650;52.790;18.268;2023-04-05T15:26:37;101100.05;;;9.26;33.26
40171;BME280;37650;52.790;18.268;2023-04-05T15:30:01;101095.67;;;9.08;34.58
40171;BME280;37650;52.790;18.268;2023-04-05T15:33:22;101098.17;;;8.78;34.57
40171;BME280;37650;52.790;18.268;2023-04-05T15:36:43;101095.94;;;8.36;35.03
40171;BME280;37650;52.790;18.268;2023-04-05T15:40:06;101104.71;;;7.99;35.20
40171;BME280;37650;52.790;18.268;2023-04-05T15:43:29;101107.96;;;7.54;35.98
40171;BME280;37650;52.790;18.268;2023-04-05T15:46:52;101109.39;;;7.37;36.64
40171;BME280;37650;52.790;18.268;2023-04-05T15:50:13;101106.23;;;7.11;37.06
40171;BME280;37650;52.790;18.268;2023-04-05T15:53:34;101106.08;;;6.92;37.49
40171;BME280;37650;52.790;18.268;2023-04-05T15:56:55;101109.19;;;6.79;37.99
40171;BME280;37650;52.790;18.268;2023-04-05T16:00:17;101107.17;;;6.52;37.72
40171;BME280;37650;52.790;18.268;2023-04-05T16:03:40;101107.02;;;6.27;38.34
40171;BME280;37650;52.790;18.268;2023-04-05T16:07:01;101107.08;;;6.21;39.20
40171;BME280;37650;52.790;18.268;2023-04-05T16:10:24;101108.39;;;6.09;38.92
40171;BME280;37650;52.790;18.268;2023-04-05T16:13:46;101113.02;;;5.94;39.19
40171;BME280;37650;52.790;18.268;2023-04-05T16:17:07;101114.27;;;5.89;39.78
40171;BME280;37650;52.790;18.268;2023-04-05T16:20:29;101116.91;;;5.79;39.95
40171;BME280;37650;52.790;18.268;2023-04-05T16:23:51;101118.53;;;5.69;40.05
40171;BME280;37650;52.790;18.268;2023-04-05T16:27:12;101116.48;;;5.63;40.61
40171;BME280;37650;52.790;18.268;2023-04-05T16:30:35;101121.21;;;5.56;40.86
40171;BME280;37650;52.790;18.268;2023-04-05T16:33:56;101121.23;;;5.52;41.47
40171;BME280;37650;52.790;18.268;2023-04-05T16:37:18;101123.35;;;5.45;41.17
40171;BME280;37650;52.790;18.268;2023-04-05T16:40:43;101123.06;;;5.30;41.46
40171;BME280;37650;52.790;18.268;2023-04-05T16:44:11;101125.01;;;5.19;41.80
40171;BME280;37650;52.790;18.268;2023-04-05T16:47:32;101128.02;;;5.07;42.33
40171;BME280;37650;52.790;18.268;2023-04-05T16:50:53;101134.12;;;4.94;42.88
40171;BME280;37650;52.790;18.268;2023-04-05T16:54:15;101137.09;;;4.86;43.46
40171;BME280;37650;52.790;18.268;2023-04-05T16:57:37;101137.10;;;4.77;43.68
40171;BME280;37650;52.790;18.268;2023-04-05T17:00:57;101139.73;;;4.63;44.19
40171;BME280;37650;52.790;18.268;2023-04-05T17:04:20;101144.25;;;4.54;44.86
40171;BME280;37650;52.790;18.268;2023-04-05T17:07:41;101149.63;;;4.50;45.52
40171;BME280;37650;52.790;18.268;2023-04-05T17:11:04;101152.94;;;4.46;45.64
40171;BME280;37650;52.790;18.268;2023-04-05T17:14:26;101148.94;;;4.37;45.81
40171;BME280;37650;52.790;18.268;2023-04-05T17:17:47;101153.11;;;4.27;46.23
40171;BME280;37650;52.790;18.268;2023-04-05T17:21:09;101158.14;;;4.20;46.49
40171;BME280;37650;52.790;18.268;2023-04-05T17:24:33;101162.63;;;4.11;46.40
40171;BME280;37650;52.790;18.268;2023-04-05T17:28:21;101165.05;;;4.01;47.03
40171;BME280;37650;52.790;18.268;2023-04-05T17:31:55;101170.75;;;3.95;47.26
40171;BME280;37650;52.790;18.268;2023-04-05T17:35:17;101174.73;;;3.87;47.55
40171;BME280;37650;52.790;18.268;2023-04-05T17:38:39;101175.94;;;3.83;47.84
40171;BME280;37650;52.790;18.268;2023-04-05T17:42:00;101176.98;;;3.83;48.31
40171;BME280;37650;52.790;18.268;2023-04-05T17:45:22;101178.86;;;3.77;48.47
40171;BME280;37650;52.790;18.268;2023-04-05T17:48:44;101176.23;;;3.71;48.64
40171;BME280;37650;52.790;18.268;2023-04-05T17:52:06;101182.44;;;3.63;49.12
40171;BME280;37650;52.790;18.268;2023-04-05T17:55:28;101185.38;;;3.58;49.14
40171;BME280;37650;52.790;18.268;2023-04-05T17:58:49;101190.04;;;3.51;49.84
40171;BME280;37650;52.790;18.268;2023-04-05T18:02:23;101195.92;;;3.47;50.63
40171;BME280;37650;52.790;18.268;2023-04-05T18:05:53;101197.98;;;3.46;50.77
40171;BME280;37650;52.790;18.268;2023-04-05T18:09:14;101204.55;;;3.42;50.87